createdAt,value
2019-05-16T15:51:23.373Z,57.04
2019-05-16T15:53:52.462Z,54.98
2019-05-16T15:56:21.160Z,57.25
2019-05-16T15:58:49.906Z,55.13
2019-05-16T16:01:18.760Z,55.93
2019-05-16T16:03:47.561Z,57.81
2019-05-16T16:06:17.738Z,58.83
2019-05-16T16:08:47.242Z,58.18
2019-05-16T16:11:17.204Z,59.32
2019-05-16T16:13:48.474Z,59.88
2019-05-16T16:16:17.447Z,61.19
2019-05-16T16:18:46.920Z,61.08
2019-05-16T16:21:16.680Z,61.27
2019-05-16T16:23:47.343Z,60.30
2019-05-16T16:26:17.728Z,60.12
2019-05-16T16:28:46.351Z,58.87
2019-05-16T16:31:16.761Z,60.23
2019-05-16T16:33:45.400Z,60.80
2019-05-16T16:36:14.150Z,60.56
2019-05-16T16:38:42.846Z,60.18
2019-05-16T16:41:11.541Z,60.09
2019-05-16T16:43:40.300Z,60.93
2019-05-16T16:46:13.268Z,61.62
2019-05-16T16:48:39.407Z,61.54
2019-05-16T16:51:08.146Z,61.86
2019-05-16T16:53:37.711Z,61.48
2019-05-16T16:56:07.558Z,62.39
2019-05-16T16:58:37.306Z,62.51
2019-05-16T17:01:07.304Z,61.40
2019-05-16T17:03:36.555Z,61.13
2019-05-16T17:06:06.551Z,60.42
2019-05-16T17:08:37.433Z,60.47
2019-05-16T17:11:07.119Z,59.17
2019-05-16T17:13:36.679Z,60.05
2019-05-16T17:16:17.996Z,59.94
2019-05-16T17:18:36.878Z,59.53
2019-05-16T17:21:07.916Z,60.38
2019-05-16T17:23:37.051Z,60.63
2019-05-16T17:26:07.361Z,60.06
2019-05-16T17:28:37.340Z,59.76
2019-05-16T17:31:07.138Z,60.29
2019-05-16T17:33:38.233Z,60.91
2019-05-16T17:36:09.035Z,62.58
2019-05-16T17:38:37.183Z,62.26
2019-05-16T17:41:07.761Z,62.05
2019-05-16T17:43:36.564Z,61.71
2019-05-16T17:46:07.111Z,61.91
2019-05-16T17:48:37.981Z,62.94
2019-05-16T17:51:06.984Z,62.39
2019-05-16T17:53:37.460Z,63.46
2019-05-16T17:56:07.001Z,63.52
2019-05-16T17:58:35.879Z,63.41
2019-05-16T18:01:06.793Z,61.66
2019-05-16T18:03:37.283Z,62.71
2019-05-16T18:06:06.384Z,59.90
2019-05-16T18:08:37.607Z,60.21
2019-05-16T18:11:08.131Z,60.29
2019-05-16T18:13:37.338Z,61.47
2019-05-16T18:16:07.547Z,63.00
2019-05-16T18:18:37.498Z,62.13
2019-05-16T18:21:07.075Z,60.43
2019-05-16T18:23:36.924Z,59.98
2019-05-16T18:26:07.615Z,60.22
2019-05-16T18:28:36.700Z,61.34
2019-05-16T18:31:05.512Z,61.34
2019-05-16T18:33:34.211Z,59.32
2019-05-16T18:36:02.943Z,59.80
2019-05-16T18:38:31.647Z,60.41
2019-05-16T18:41:00.336Z,62.03
2019-05-16T18:43:29.071Z,62.04
2019-05-16T18:45:57.772Z,61.72
2019-05-16T18:48:27.305Z,60.93
2019-05-16T18:50:57.603Z,60.08
2019-05-16T18:53:27.065Z,60.06
2019-05-16T18:55:57.112Z,60.64
2019-05-16T18:58:27.056Z,60.37
2019-05-16T19:00:55.771Z,61.21
2019-05-16T19:03:26.836Z,59.74
2019-05-16T19:05:57.212Z,61.21
2019-05-16T19:08:27.014Z,60.58
2019-05-16T19:10:56.853Z,60.49
2019-05-16T19:13:27.673Z,58.78
2019-05-16T19:15:57.207Z,60.11
2019-05-16T19:18:26.388Z,59.64
2019-05-16T19:20:57.134Z,60.50
2019-05-16T19:23:27.037Z,60.06
2019-05-16T19:25:56.904Z,58.58
2019-05-16T19:28:28.256Z,59.68
2019-05-16T19:30:57.278Z,59.01
2019-05-16T19:33:26.149Z,58.81
2019-05-16T19:35:56.535Z,58.12
2019-05-16T19:38:26.529Z,59.33
2019-05-16T19:40:57.505Z,60.14
2019-05-16T19:43:26.599Z,62.83
2019-05-16T19:45:57.293Z,61.09
2019-05-16T19:48:26.720Z,59.54
2019-05-16T19:50:56.961Z,58.55
2019-05-16T19:53:27.192Z,59.77
2019-05-16T19:55:57.725Z,60.05
2019-05-16T19:58:26.770Z,59.80
2019-05-16T20:00:57.180Z,58.39
2019-05-16T20:03:27.335Z,57.85
2019-05-16T20:05:56.868Z,58.36
2019-05-16T20:08:26.909Z,59.14
2019-05-16T20:10:55.870Z,58.32
2019-05-16T20:13:24.567Z,61.16
2019-05-16T20:15:53.268Z,60.24
2019-05-16T20:18:22.012Z,60.62
2019-05-16T20:20:50.716Z,60.65
2019-05-16T20:23:19.429Z,59.79
2019-05-16T20:25:49.103Z,60.22
2019-05-16T20:28:18.590Z,59.64
2019-05-16T20:30:47.660Z,60.06
2019-05-16T20:33:17.974Z,60.71
2019-05-16T20:35:46.942Z,58.52
2019-05-16T20:38:17.301Z,58.93
2019-05-16T20:40:46.710Z,58.20
2019-05-16T20:43:16.891Z,58.16
2019-05-16T20:45:47.617Z,58.23
2019-05-16T20:48:18.398Z,57.94
2019-05-16T20:50:48.888Z,61.00
2019-05-16T20:53:17.544Z,59.82
2019-05-16T20:55:49.698Z,60.14
2019-05-16T20:58:16.887Z,61.71
2019-05-16T21:00:49.394Z,61.81
2019-05-16T21:03:16.413Z,62.49
2019-05-16T21:05:48.088Z,60.98
2019-05-16T21:08:17.246Z,60.94
2019-05-16T21:10:46.484Z,59.83
2019-05-16T21:13:17.270Z,59.08
2019-05-16T21:15:47.663Z,60.25
2019-05-16T21:18:16.730Z,62.67
2019-05-16T21:20:46.977Z,64.01
2019-05-16T21:23:16.764Z,66.09
2019-05-16T21:25:46.798Z,65.83
2019-05-16T21:28:19.473Z,64.30
2019-05-16T21:30:47.401Z,64.74
2019-05-16T21:33:18.427Z,63.62
2019-05-16T21:35:47.055Z,63.86
2019-05-16T21:38:16.499Z,63.53
2019-05-16T21:40:45.423Z,63.10
2019-05-16T21:43:16.679Z,62.13
2019-05-16T21:45:44.554Z,60.64
2019-05-16T21:48:13.297Z,61.49
2019-05-16T21:50:41.914Z,62.67
2019-05-16T21:53:10.612Z,62.38
2019-05-16T21:55:39.351Z,63.98
2019-05-16T21:58:08.050Z,62.61
2019-05-16T22:00:43.690Z,62.31
2019-05-16T22:03:13.292Z,60.42
2019-05-16T22:05:42.080Z,61.81
2019-05-16T22:08:11.840Z,63.84
2019-05-16T22:10:40.811Z,63.06
2019-05-16T22:13:09.516Z,65.32
2019-05-16T22:15:38.244Z,65.36
2019-05-16T22:18:07.375Z,63.63
2019-05-16T22:20:36.057Z,63.13
2019-05-16T22:23:06.917Z,61.88
2019-05-16T22:25:35.240Z,62.19
2019-05-16T22:28:06.958Z,61.56
2019-05-16T22:30:36.400Z,62.29
2019-05-16T22:33:08.768Z,62.18
2019-05-16T22:35:37.518Z,63.81
2019-05-16T22:38:06.649Z,64.21
2019-05-16T22:40:37.432Z,63.62
2019-05-16T22:43:09.686Z,63.39
2019-05-16T22:45:37.477Z,63.92
2019-05-16T22:48:07.083Z,62.53
2019-05-16T22:50:36.455Z,62.60
2019-05-16T22:53:06.361Z,61.85
2019-05-16T22:55:37.222Z,60.71
2019-05-16T22:58:07.346Z,60.60
2019-05-16T23:00:39.368Z,61.69
2019-05-16T23:03:06.977Z,62.67
2019-05-16T23:05:36.899Z,62.44
2019-05-16T23:08:09.564Z,61.48
2019-05-16T23:10:36.798Z,61.92
2019-05-16T23:13:06.715Z,62.17
2019-05-16T23:15:35.641Z,60.35
2019-05-16T23:18:06.705Z,60.15
2019-05-16T23:20:36.931Z,61.59
2019-05-16T23:23:07.217Z,61.83
2019-05-16T23:25:37.168Z,62.86
2019-05-16T23:28:07.771Z,63.90
2019-05-16T23:30:36.762Z,62.47
2019-05-16T23:33:07.133Z,63.50
2019-05-16T23:35:37.661Z,62.64
2019-05-16T23:38:18.623Z,63.26
2019-05-16T23:40:37.632Z,64.50
2019-05-16T23:43:07.619Z,64.60
2019-05-16T23:45:37.625Z,62.82
2019-05-16T23:48:10.550Z,61.78
2019-05-16T23:50:36.934Z,60.55
2019-05-16T23:53:07.250Z,59.37
2019-05-16T23:55:37.231Z,59.08
2019-05-16T23:58:06.988Z,58.39
